sensor_id;sensor_type;location;lat;lon;timestamp;P1;durP1;ratioP1;P2;durP2;ratioP2
19341;SDS011;9807;48.258;12.690;2022-12-07T00:01:24;29.30;;;15.27;;
19341;SDS011;9807;48.258;12.690;2022-12-07T00:03:54;28.33;;;15.33;;
19341;SDS011;9807;48.258;12.690;2022-12-07T00:06:31;26.03;;;15.13;;
19341;SDS011;9807;48.258;12.690;2022-12-07T00:08:58;28.70;;;15.87;;
19341;SDS011;9807;48.258;12.690;2022-12-07T00:11:26;28.57;;;14.83;;
19341;SDS011;9807;48.258;12.690;2022-12-07T00:13:56;25.63;;;13.77;;
19341;SDS011;9807;48.258;12.690;2022-12-07T00:16:27;28.10;;;15.40;;
19341;SDS011;9807;48.258;12.690;2022-12-07T00:18:55;26.40;;;14.57;;
19341;SDS011;9807;48.258;12.690;2022-12-07T00:21:25;26.47;;;15.33;;
19341;SDS011;9807;48.258;12.690;2022-12-07T00:23:58;27.83;;;15.13;;
19341;SDS011;9807;48.258;12.690;2022-12-07T00:26:25;27.70;;;15.60;;
19341;SDS011;9807;48.258;12.690;2022-12-07T00:28:54;32.43;;;15.70;;
19341;SDS011;9807;48.258;12.690;2022-12-07T00:31:26;28.00;;;15.33;;
19341;SDS011;9807;48.258;12.690;2022-12-07T00:33:54;26.00;;;14.57;;
19341;SDS011;9807;48.258;12.690;2022-12-07T00:36:23;26.67;;;14.57;;
19341;SDS011;9807;48.258;12.690;2022-12-07T00:38:50;26.70;;;14.17;;
19341;SDS011;9807;48.258;12.690;2022-12-07T00:41:16;28.53;;;15.50;;
19341;SDS011;9807;48.258;12.690;2022-12-07T00:43:46;26.70;;;14.43;;
19341;SDS011;9807;48.258;12.690;2022-12-07T00:46:13;27.50;;;15.37;;
19341;SDS011;9807;48.258;12.690;2022-12-07T00:48:42;32.97;;;15.40;;
19341;SDS011;9807;48.258;12.690;2022-12-07T00:51:09;29.93;;;14.80;;
19341;SDS011;9807;48.258;12.690;2022-12-07T00:53:44;27.93;;;15.30;;
19341;SDS011;9807;48.258;12.690;2022-12-07T00:56:14;31.73;;;16.60;;
19341;SDS011;9807;48.258;12.690;2022-12-07T00:58:42;27.33;;;15.17;;
19341;SDS011;9807;48.258;12.690;2022-12-07T01:01:09;27.27;;;15.57;;
19341;SDS011;9807;48.258;12.690;2022-12-07T01:03:36;29.60;;;15.17;;
19341;SDS011;9807;48.258;12.690;2022-12-07T01:06:02;28.63;;;14.43;;
19341;SDS011;9807;48.258;12.690;2022-12-07T01:08:31;27.63;;;14.40;;
19341;SDS011;9807;48.258;12.690;2022-12-07T01:11:00;24.33;;;14.27;;
19341;SDS011;9807;48.258;12.690;2022-12-07T01:13:37;29.10;;;15.13;;
19341;SDS011;9807;48.258;12.690;2022-12-07T01:16:04;27.77;;;15.83;;
19341;SDS011;9807;48.258;12.690;2022-12-07T01:18:32;28.70;;;15.80;;
19341;SDS011;9807;48.258;12.690;2022-12-07T01:21:00;36.07;;;17.17;;
19341;SDS011;9807;48.258;12.690;2022-12-07T01:23:29;30.77;;;17.17;;
19341;SDS011;9807;48.258;12.690;2022-12-07T01:25:58;31.73;;;16.83;;
19341;SDS011;9807;48.258;12.690;2022-12-07T01:28:29;30.67;;;16.10;;
19341;SDS011;9807;48.258;12.690;2022-12-07T01:30:58;31.17;;;14.90;;
19341;SDS011;9807;48.258;12.690;2022-12-07T01:33:26;27.90;;;14.47;;
19341;SDS011;9807;48.258;12.690;2022-12-07T01:36:00;25.80;;;15.17;;
19341;SDS011;9807;48.258;12.690;2022-12-07T01:38:40;24.53;;;13.07;;
19341;SDS011;9807;48.258;12.690;2022-12-07T01:41:06;26.43;;;13.90;;
19341;SDS011;9807;48.258;12.690;2022-12-07T01:46:36;21.07;;;12.67;;
19341;SDS011;9807;48.258;12.690;2022-12-07T01:49:03;25.07;;;13.10;;
19341;SDS011;9807;48.258;12.690;2022-12-07T01:51:35;24.37;;;13.50;;
19341;SDS011;9807;48.258;12.690;2022-12-07T01:54:04;21.63;;;13.23;;
19341;SDS011;9807;48.258;12.690;2022-12-07T01:56:32;21.90;;;12.90;;
19341;SDS011;9807;48.258;12.690;2022-12-07T01:58:59;21.83;;;13.03;;
19341;SDS011;9807;48.258;12.690;2022-12-07T02:01:26;23.17;;;13.20;;
19341;SDS011;9807;48.258;12.690;2022-12-07T02:03:51;24.33;;;13.03;;
19341;SDS011;9807;48.258;12.690;2022-12-07T02:06:22;23.50;;;13.03;;
19341;SDS011;9807;48.258;12.690;2022-12-07T02:08:50;25.07;;;13.23;;
19341;SDS011;9807;48.258;12.690;2022-12-07T02:11:16;21.03;;;12.73;;
19341;SDS011;9807;48.258;12.690;2022-12-07T02:13:43;20.93;;;12.63;;
19341;SDS011;9807;48.258;12.690;2022-12-07T02:22:06;20.70;;;12.50;;
19341;SDS011;9807;48.258;12.690;2022-12-07T02:30:12;20.03;;;12.17;;
19341;SDS011;9807;48.258;12.690;2022-12-07T02:32:49;21.20;;;12.50;;
19341;SDS011;9807;48.258;12.690;2022-12-07T02:35:25;20.27;;;12.03;;
19341;SDS011;9807;48.258;12.690;2022-12-07T02:38:10;18.87;;;11.73;;
19341;SDS011;9807;48.258;12.690;2022-12-07T02:40:42;21.07;;;11.73;;
19341;SDS011;9807;48.258;12.690;2022-12-07T02:43:25;19.90;;;11.93;;
19341;SDS011;9807;48.258;12.690;2022-12-07T02:46:06;20.40;;;12.17;;
19341;SDS011;9807;48.258;12.690;2022-12-07T02:48:36;20.60;;;10.90;;
19341;SDS011;9807;48.258;12.690;2022-12-07T02:51:04;20.50;;;12.27;;
19341;SDS011;9807;48.258;12.690;2022-12-07T02:53:31;21.83;;;11.97;;
19341;SDS011;9807;48.258;12.690;2022-12-07T02:58:50;18.27;;;11.40;;
19341;SDS011;9807;48.258;12.690;2022-12-07T03:01:30;17.03;;;10.93;;
19341;SDS011;9807;48.258;12.690;2022-12-07T03:04:36;19.27;;;11.70;;
19341;SDS011;9807;48.258;12.690;2022-12-07T03:15:12;19.87;;;11.17;;
19341;SDS011;9807;48.258;12.690;2022-12-07T03:18:18;17.90;;;11.97;;
19341;SDS011;9807;48.258;12.690;2022-12-07T03:20:49;23.73;;;11.93;;
19341;SDS011;9807;48.258;12.690;2022-12-07T03:23:26;17.57;;;10.57;;
19341;SDS011;9807;48.258;12.690;2022-12-07T03:25:58;18.23;;;11.30;;
19341;SDS011;9807;48.258;12.690;2022-12-07T03:28:27;21.50;;;11.63;;
19341;SDS011;9807;48.258;12.690;2022-12-07T03:31:13;18.37;;;11.20;;
19341;SDS011;9807;48.258;12.690;2022-12-07T03:33:49;19.33;;;11.50;;
19341;SDS011;9807;48.258;12.690;2022-12-07T03:36:34;19.70;;;11.87;;
19341;SDS011;9807;48.258;12.690;2022-12-07T03:39:20;17.43;;;11.20;;
19341;SDS011;9807;48.258;12.690;2022-12-07T03:42:01;20.23;;;11.67;;
19341;SDS011;9807;48.258;12.690;2022-12-07T03:44:29;20.10;;;12.30;;
19341;SDS011;9807;48.258;12.690;2022-12-07T03:47:16;21.43;;;12.60;;
19341;SDS011;9807;48.258;12.690;2022-12-07T03:49:54;21.03;;;12.53;;
19341;SDS011;9807;48.258;12.690;2022-12-07T03:52:31;20.73;;;12.00;;
19341;SDS011;9807;48.258;12.690;2022-12-07T03:57:57;22.40;;;13.20;;
19341;SDS011;9807;48.258;12.690;2022-12-07T04:00:27;25.17;;;13.63;;
19341;SDS011;9807;48.258;12.690;2022-12-07T04:02:53;24.20;;;13.27;;
19341;SDS011;9807;48.258;12.690;2022-12-07T04:05:22;24.43;;;13.03;;
19341;SDS011;9807;48.258;12.690;2022-12-07T04:07:51;23.63;;;12.80;;
19341;SDS011;9807;48.258;12.690;2022-12-07T04:10:20;23.57;;;13.43;;
19341;SDS011;9807;48.258;12.690;2022-12-07T04:12:45;22.53;;;12.30;;
19341;SDS011;9807;48.258;12.690;2022-12-07T04:15:14;22.20;;;12.97;;
19341;SDS011;9807;48.258;12.690;2022-12-07T04:17:43;20.67;;;12.03;;
19341;SDS011;9807;48.258;12.690;2022-12-07T04:20:09;26.03;;;12.93;;
19341;SDS011;9807;48.258;12.690;2022-12-07T04:22:41;23.03;;;12.77;;
19341;SDS011;9807;48.258;12.690;2022-12-07T04:25:06;22.27;;;12.77;;
19341;SDS011;9807;48.258;12.690;2022-12-07T04:27:32;20.87;;;12.53;;
19341;SDS011;9807;48.258;12.690;2022-12-07T04:30:01;20.53;;;12.50;;
19341;SDS011;9807;48.258;12.690;2022-12-07T04:32:27;21.63;;;11.83;;
19341;SDS011;9807;48.258;12.690;2022-12-07T04:34:54;22.20;;;11.97;;
19341;SDS011;9807;48.258;12.690;2022-12-07T04:37:19;21.40;;;12.60;;
19341;SDS011;9807;48.258;12.690;2022-12-07T04:39:45;20.33;;;12.17;;
19341;SDS011;9807;48.258;12.690;2022-12-07T04:42:13;21.57;;;12.87;;
19341;SDS011;9807;48.258;12.690;2022-12-07T04:44:39;21.73;;;12.93;;
19341;SDS011;9807;48.258;12.690;2022-12-07T04:47:05;22.23;;;12.07;;
19341;SDS011;9807;48.258;12.690;2022-12-07T04:49:31;22.97;;;12.70;;
19341;SDS011;9807;48.258;12.690;2022-12-07T04:52:00;20.97;;;12.50;;
19341;SDS011;9807;48.258;12.690;2022-12-07T04:54:30;21.83;;;12.67;;
19341;SDS011;9807;48.258;12.690;2022-12-07T04:56:56;22.63;;;13.23;;
19341;SDS011;9807;48.258;12.690;2022-12-07T04:59:22;24.03;;;12.53;;
19341;SDS011;9807;48.258;12.690;2022-12-07T05:01:48;21.93;;;13.10;;
19341;SDS011;9807;48.258;12.690;2022-12-07T05:04:16;20.60;;;12.10;;
19341;SDS011;9807;48.258;12.690;2022-12-07T05:06:43;20.60;;;12.37;;
19341;SDS011;9807;48.258;12.690;2022-12-07T05:09:14;20.63;;;12.67;;
19341;SDS011;9807;48.258;12.690;2022-12-07T05:11:40;21.87;;;12.50;;
19341;SDS011;9807;48.258;12.690;2022-12-07T05:14:11;21.97;;;11.83;;
19341;SDS011;9807;48.258;12.690;2022-12-07T05:16:43;20.50;;;11.87;;
19341;SDS011;9807;48.258;12.690;2022-12-07T05:19:10;21.13;;;12.60;;
19341;SDS011;9807;48.258;12.690;2022-12-07T05:21:39;22.97;;;12.37;;
19341;SDS011;9807;48.258;12.690;2022-12-07T05:24:05;20.77;;;11.73;;
19341;SDS011;9807;48.258;12.690;2022-12-07T05:26:33;21.87;;;12.17;;
19341;SDS011;9807;48.258;12.690;2022-12-07T05:28:59;20.80;;;11.37;;
19341;SDS011;9807;48.258;12.690;2022-12-07T05:31:25;25.03;;;12.67;;
19341;SDS011;9807;48.258;12.690;2022-12-07T05:33:52;20.47;;;11.80;;
19341;SDS011;9807;48.258;12.690;2022-12-07T05:36:21;21.47;;;12.07;;
19341;SDS011;9807;48.258;12.690;2022-12-07T05:38:47;19.70;;;12.10;;
19341;SDS011;9807;48.258;12.690;2022-12-07T05:41:19;19.50;;;11.50;;
19341;SDS011;9807;48.258;12.690;2022-12-07T05:44:12;20.77;;;12.30;;
19341;SDS011;9807;48.258;12.690;2022-12-07T05:46:38;22.17;;;13.40;;
19341;SDS011;9807;48.258;12.690;2022-12-07T05:49:04;19.87;;;11.97;;
19341;SDS011;9807;48.258;12.690;2022-12-07T05:51:30;20.50;;;12.47;;
19341;SDS011;9807;48.258;12.690;2022-12-07T05:53:58;22.47;;;12.17;;
19341;SDS011;9807;48.258;12.690;2022-12-07T05:56:24;18.20;;;11.00;;
19341;SDS011;9807;48.258;12.690;2022-12-07T05:58:54;20.37;;;12.13;;
19341;SDS011;9807;48.258;12.690;2022-12-07T06:01:38;23.93;;;12.30;;
19341;SDS011;9807;48.258;12.690;2022-12-07T06:04:07;21.33;;;12.13;;
19341;SDS011;9807;48.258;12.690;2022-12-07T06:06:34;20.13;;;11.60;;
19341;SDS011;9807;48.258;12.690;2022-12-07T06:09:02;19.33;;;11.87;;
19341;SDS011;9807;48.258;12.690;2022-12-07T06:11:28;22.93;;;13.33;;
19341;SDS011;9807;48.258;12.690;2022-12-07T06:14:12;24.23;;;13.67;;
19341;SDS011;9807;48.258;12.690;2022-12-07T06:16:41;22.13;;;13.40;;
19341;SDS011;9807;48.258;12.690;2022-12-07T06:19:06;22.87;;;13.27;;
19341;SDS011;9807;48.258;12.690;2022-12-07T06:21:32;20.50;;;12.43;;
19341;SDS011;9807;48.258;12.690;2022-12-07T06:24:01;24.37;;;12.87;;
19341;SDS011;9807;48.258;12.690;2022-12-07T06:26:30;20.70;;;11.97;;
19341;SDS011;9807;48.258;12.690;2022-12-07T06:28:55;20.90;;;13.20;;
19341;SDS011;9807;48.258;12.690;2022-12-07T06:31:21;23.27;;;13.73;;
19341;SDS011;9807;48.258;12.690;2022-12-07T06:33:47;22.70;;;12.73;;
19341;SDS011;9807;48.258;12.690;2022-12-07T06:36:13;25.43;;;13.03;;
19341;SDS011;9807;48.258;12.690;2022-12-07T06:38:39;20.00;;;12.57;;
19341;SDS011;9807;48.258;12.690;2022-12-07T06:41:04;24.30;;;11.53;;
19341;SDS011;9807;48.258;12.690;2022-12-07T06:43:31;23.17;;;13.30;;
19341;SDS011;9807;48.258;12.690;2022-12-07T06:45:57;22.10;;;13.00;;
19341;SDS011;9807;48.258;12.690;2022-12-07T06:48:22;24.80;;;13.87;;
19341;SDS011;9807;48.258;12.690;2022-12-07T06:50:48;22.20;;;13.17;;
19341;SDS011;9807;48.258;12.690;2022-12-07T06:53:14;34.57;;;18.27;;
19341;SDS011;9807;48.258;12.690;2022-12-07T06:55:41;26.70;;;14.13;;
19341;SDS011;9807;48.258;12.690;2022-12-07T06:58:07;43.00;;;18.97;;
19341;SDS011;9807;48.258;12.690;2022-12-07T07:00:32;36.23;;;18.50;;
19341;SDS011;9807;48.258;12.690;2022-12-07T07:03:00;26.77;;;13.97;;
19341;SDS011;9807;48.258;12.690;2022-12-07T07:05:28;20.17;;;11.53;;
19341;SDS011;9807;48.258;12.690;2022-12-07T07:07:53;17.93;;;11.00;;
19341;SDS011;9807;48.258;12.690;2022-12-07T07:10:19;18.37;;;11.50;;
19341;SDS011;9807;48.258;12.690;2022-12-07T07:12:45;18.40;;;11.10;;
19341;SDS011;9807;48.258;12.690;2022-12-07T07:15:10;18.97;;;11.87;;
19341;SDS011;9807;48.258;12.690;2022-12-07T07:17:37;20.57;;;13.13;;
19341;SDS011;9807;48.258;12.690;2022-12-07T07:20:03;20.27;;;12.50;;
19341;SDS011;9807;48.258;12.690;2022-12-07T07:22:30;22.33;;;12.97;;
19341;SDS011;9807;48.258;12.690;2022-12-07T07:24:55;21.60;;;12.77;;
19341;SDS011;9807;48.258;12.690;2022-12-07T07:27:21;19.07;;;12.30;;
19341;SDS011;9807;48.258;12.690;2022-12-07T07:29:46;18.93;;;11.73;;
19341;SDS011;9807;48.258;12.690;2022-12-07T07:32:12;19.77;;;11.93;;
19341;SDS011;9807;48.258;12.690;2022-12-07T07:34:40;21.67;;;12.50;;
19341;SDS011;9807;48.258;12.690;2022-12-07T07:37:09;16.73;;;11.13;;
19341;SDS011;9807;48.258;12.690;2022-12-07T07:39:37;21.57;;;12.03;;
19341;SDS011;9807;48.258;12.690;2022-12-07T07:42:04;20.13;;;12.27;;
19341;SDS011;9807;48.258;12.690;2022-12-07T07:44:30;17.93;;;10.83;;
19341;SDS011;9807;48.258;12.690;2022-12-07T07:46:56;19.10;;;11.53;;
19341;SDS011;9807;48.258;12.690;2022-12-07T07:49:21;14.53;;;9.80;;
19341;SDS011;9807;48.258;12.690;2022-12-07T07:51:47;17.27;;;11.30;;
19341;SDS011;9807;48.258;12.690;2022-12-07T07:54:13;16.57;;;9.67;;
19341;SDS011;9807;48.258;12.690;2022-12-07T07:56:42;20.47;;;12.37;;
19341;SDS011;9807;48.258;12.690;2022-12-07T07:59:13;10.60;;;7.27;;
19341;SDS011;9807;48.258;12.690;2022-12-07T08:01:44;20.13;;;13.30;;
19341;SDS011;9807;48.258;12.690;2022-12-07T08:04:10;20.77;;;12.27;;
19341;SDS011;9807;48.258;12.690;2022-12-07T08:06:36;24.17;;;13.53;;
19341;SDS011;9807;48.258;12.690;2022-12-07T08:09:02;20.00;;;13.37;;
19341;SDS011;9807;48.258;12.690;2022-12-07T08:11:31;26.37;;;13.83;;
19341;SDS011;9807;48.258;12.690;2022-12-07T08:13:57;22.20;;;13.90;;
19341;SDS011;9807;48.258;12.690;2022-12-07T08:16:23;28.10;;;13.67;;
19341;SDS011;9807;48.258;12.690;2022-12-07T08:18:51;25.77;;;14.20;;
19341;SDS011;9807;48.258;12.690;2022-12-07T08:21:21;27.60;;;13.30;;
19341;SDS011;9807;48.258;12.690;2022-12-07T08:23:47;22.77;;;13.57;;
19341;SDS011;9807;48.258;12.690;2022-12-07T08:26:14;21.13;;;13.47;;
19341;SDS011;9807;48.258;12.690;2022-12-07T08:28:44;20.20;;;12.50;;
19341;SDS011;9807;48.258;12.690;2022-12-07T08:31:14;20.50;;;12.80;;
19341;SDS011;9807;48.258;12.690;2022-12-07T08:33:42;26.83;;;14.30;;
19341;SDS011;9807;48.258;12.690;2022-12-07T08:36:13;23.13;;;13.80;;
19341;SDS011;9807;48.258;12.690;2022-12-07T08:38:40;27.77;;;14.13;;
19341;SDS011;9807;48.258;12.690;2022-12-07T08:41:07;24.33;;;14.73;;
19341;SDS011;9807;48.258;12.690;2022-12-07T08:43:35;27.40;;;14.33;;
19341;SDS011;9807;48.258;12.690;2022-12-07T08:48:58;32.97;;;15.40;;
19341;SDS011;9807;48.258;12.690;2022-12-07T08:51:32;25.60;;;15.30;;
19341;SDS011;9807;48.258;12.690;2022-12-07T08:54:02;25.33;;;16.13;;
19341;SDS011;9807;48.258;12.690;2022-12-07T08:56:35;26.87;;;16.23;;
19341;SDS011;9807;48.258;12.690;2022-12-07T08:59:01;37.57;;;21.63;;
19341;SDS011;9807;48.258;12.690;2022-12-07T09:01:28;29.00;;;17.20;;
19341;SDS011;9807;48.258;12.690;2022-12-07T09:03:58;29.13;;;17.07;;
19341;SDS011;9807;48.258;12.690;2022-12-07T09:06:24;38.00;;;20.73;;
19341;SDS011;9807;48.258;12.690;2022-12-07T09:08:51;26.53;;;16.10;;
19341;SDS011;9807;48.258;12.690;2022-12-07T09:11:21;30.20;;;15.97;;
19341;SDS011;9807;48.258;12.690;2022-12-07T09:13:47;30.30;;;16.43;;
19341;SDS011;9807;48.258;12.690;2022-12-07T09:16:13;31.33;;;16.10;;
19341;SDS011;9807;48.258;12.690;2022-12-07T09:18:41;27.20;;;16.17;;
19341;SDS011;9807;48.258;12.690;2022-12-07T09:21:07;28.10;;;15.60;;
19341;SDS011;9807;48.258;12.690;2022-12-07T09:23:41;30.40;;;15.70;;
19341;SDS011;9807;48.258;12.690;2022-12-07T09:26:09;37.47;;;16.80;;
19341;SDS011;9807;48.258;12.690;2022-12-07T09:28:38;27.17;;;15.77;;
19341;SDS011;9807;48.258;12.690;2022-12-07T09:31:04;26.43;;;15.47;;
19341;SDS011;9807;48.258;12.690;2022-12-07T09:33:31;24.30;;;14.77;;
19341;SDS011;9807;48.258;12.690;2022-12-07T09:35:57;28.90;;;15.57;;
19341;SDS011;9807;48.258;12.690;2022-12-07T09:38:23;30.03;;;17.37;;
19341;SDS011;9807;48.258;12.690;2022-12-07T09:40:51;28.77;;;16.83;;
19341;SDS011;9807;48.258;12.690;2022-12-07T09:43:21;30.97;;;15.50;;
19341;SDS011;9807;48.258;12.690;2022-12-07T09:45:50;25.70;;;15.43;;
19341;SDS011;9807;48.258;12.690;2022-12-07T09:48:37;30.03;;;16.47;;
19341;SDS011;9807;48.258;12.690;2022-12-07T09:51:14;31.93;;;15.90;;
19341;SDS011;9807;48.258;12.690;2022-12-07T09:53:47;25.13;;;14.50;;
19341;SDS011;9807;48.258;12.690;2022-12-07T09:56:14;24.40;;;15.03;;
19341;SDS011;9807;48.258;12.690;2022-12-07T09:58:42;29.33;;;14.97;;
19341;SDS011;9807;48.258;12.690;2022-12-07T10:01:10;22.63;;;14.03;;
19341;SDS011;9807;48.258;12.690;2022-12-07T10:04:08;23.53;;;14.03;;
19341;SDS011;9807;48.258;12.690;2022-12-07T10:06:41;28.83;;;15.30;;
19341;SDS011;9807;48.258;12.690;2022-12-07T10:09:11;31.13;;;15.10;;
19341;SDS011;9807;48.258;12.690;2022-12-07T10:14:52;22.67;;;14.00;;
19341;SDS011;9807;48.258;12.690;2022-12-07T10:19:51;35.43;;;15.20;;
19341;SDS011;9807;48.258;12.690;2022-12-07T10:22:17;26.93;;;13.83;;
19341;SDS011;9807;48.258;12.690;2022-12-07T10:24:43;32.90;;;14.83;;
19341;SDS011;9807;48.258;12.690;2022-12-07T10:29:51;24.47;;;14.53;;
19341;SDS011;9807;48.258;12.690;2022-12-07T10:34:44;22.87;;;13.33;;
19341;SDS011;9807;48.258;12.690;2022-12-07T10:37:15;29.33;;;14.47;;
19341;SDS011;9807;48.258;12.690;2022-12-07T10:39:43;28.50;;;14.57;;
19341;SDS011;9807;48.258;12.690;2022-12-07T10:44:50;24.03;;;14.27;;
19341;SDS011;9807;48.258;12.690;2022-12-07T10:47:58;29.13;;;13.47;;
19341;SDS011;9807;48.258;12.690;2022-12-07T11:01:48;22.73;;;12.77;;
19341;SDS011;9807;48.258;12.690;2022-12-07T11:09:49;27.20;;;12.90;;
19341;SDS011;9807;48.258;12.690;2022-12-07T11:12:27;18.23;;;11.57;;
19341;SDS011;9807;48.258;12.690;2022-12-07T11:19:15;22.37;;;12.77;;
19341;SDS011;9807;48.258;12.690;2022-12-07T11:27:28;27.97;;;13.20;;
19341;SDS011;9807;48.258;12.690;2022-12-07T11:30:18;23.77;;;13.27;;
19341;SDS011;9807;48.258;12.690;2022-12-07T11:38:14;30.50;;;12.43;;
19341;SDS011;9807;48.258;12.690;2022-12-07T11:40:51;20.83;;;12.60;;
19341;SDS011;9807;48.258;12.690;2022-12-07T11:43:37;24.00;;;12.33;;
19341;SDS011;9807;48.258;12.690;2022-12-07T11:46:15;20.47;;;11.97;;
19341;SDS011;9807;48.258;12.690;2022-12-07T11:51:27;42.87;;;18.20;;
19341;SDS011;9807;48.258;12.690;2022-12-07T11:56:50;29.10;;;14.10;;
19341;SDS011;9807;48.258;12.690;2022-12-07T11:59:25;34.73;;;13.27;;
19341;SDS011;9807;48.258;12.690;2022-12-07T12:02:18;18.17;;;10.60;;
19341;SDS011;9807;48.258;12.690;2022-12-07T12:05:23;28.53;;;14.50;;
19341;SDS011;9807;48.258;12.690;2022-12-07T12:07:46;23.97;;;11.83;;
19341;SDS011;9807;48.258;12.690;2022-12-07T12:10:47;22.07;;;11.10;;
19341;SDS011;9807;48.258;12.690;2022-12-07T12:19:27;19.50;;;11.63;;
19341;SDS011;9807;48.258;12.690;2022-12-07T12:21:53;17.33;;;10.67;;
19341;SDS011;9807;48.258;12.690;2022-12-07T12:24:25;14.70;;;10.70;;
19341;SDS011;9807;48.258;12.690;2022-12-07T12:27:02;18.00;;;10.80;;
19341;SDS011;9807;48.258;12.690;2022-12-07T12:29:35;31.80;;;11.20;;
19341;SDS011;9807;48.258;12.690;2022-12-07T12:32:06;28.63;;;11.23;;
19341;SDS011;9807;48.258;12.690;2022-12-07T12:34:40;22.93;;;11.33;;
19341;SDS011;9807;48.258;12.690;2022-12-07T12:50:26;39.13;;;19.47;;
19341;SDS011;9807;48.258;12.690;2022-12-07T12:52:58;31.27;;;14.33;;
19341;SDS011;9807;48.258;12.690;2022-12-07T12:55:49;17.03;;;11.00;;
19341;SDS011;9807;48.258;12.690;2022-12-07T12:58:38;20.20;;;10.33;;
19341;SDS011;9807;48.258;12.690;2022-12-07T13:04:14;18.90;;;11.07;;
19341;SDS011;9807;48.258;12.690;2022-12-07T13:06:46;20.87;;;10.83;;
19341;SDS011;9807;48.258;12.690;2022-12-07T13:09:28;16.87;;;9.93;;
19341;SDS011;9807;48.258;12.690;2022-12-07T13:12:04;17.30;;;9.87;;
19341;SDS011;9807;48.258;12.690;2022-12-07T13:17:12;19.60;;;11.10;;
19341;SDS011;9807;48.258;12.690;2022-12-07T13:19:55;23.10;;;11.90;;
19341;SDS011;9807;48.258;12.690;2022-12-07T13:25:22;35.47;;;13.43;;
19341;SDS011;9807;48.258;12.690;2022-12-07T13:28:10;23.33;;;11.33;;
19341;SDS011;9807;48.258;12.690;2022-12-07T13:30:45;20.73;;;10.77;;
19341;SDS011;9807;48.258;12.690;2022-12-07T13:33:30;22.00;;;10.83;;
19341;SDS011;9807;48.258;12.690;2022-12-07T13:36:02;25.37;;;12.30;;
19341;SDS011;9807;48.258;12.690;2022-12-07T13:38:33;22.23;;;11.43;;
19341;SDS011;9807;48.258;12.690;2022-12-07T13:49:20;26.07;;;11.67;;
19341;SDS011;9807;48.258;12.690;2022-12-07T13:51:53;18.50;;;9.70;;
19341;SDS011;9807;48.258;12.690;2022-12-07T13:54:31;17.20;;;10.03;;
19341;SDS011;9807;48.258;12.690;2022-12-07T13:56:57;18.43;;;10.40;;
19341;SDS011;9807;48.258;12.690;2022-12-07T13:59:24;27.13;;;10.77;;
19341;SDS011;9807;48.258;12.690;2022-12-07T14:01:52;28.07;;;11.50;;
19341;SDS011;9807;48.258;12.690;2022-12-07T14:04:28;23.03;;;10.80;;
19341;SDS011;9807;48.258;12.690;2022-12-07T14:06:54;21.17;;;10.57;;
19341;SDS011;9807;48.258;12.690;2022-12-07T14:09:24;30.30;;;11.13;;
19341;SDS011;9807;48.258;12.690;2022-12-07T14:11:52;16.70;;;10.00;;
19341;SDS011;9807;48.258;12.690;2022-12-07T14:14:20;52.23;;;12.73;;
19341;SDS011;9807;48.258;12.690;2022-12-07T14:17:17;32.10;;;11.23;;
19341;SDS011;9807;48.258;12.690;2022-12-07T14:22:35;33.83;;;16.93;;
19341;SDS011;9807;48.258;12.690;2022-12-07T14:25:15;24.73;;;13.53;;
19341;SDS011;9807;48.258;12.690;2022-12-07T14:27:51;21.00;;;10.80;;
19341;SDS011;9807;48.258;12.690;2022-12-07T14:30:21;45.90;;;13.00;;
19341;SDS011;9807;48.258;12.690;2022-12-07T14:32:53;21.00;;;11.97;;
19341;SDS011;9807;48.258;12.690;2022-12-07T14:35:23;23.70;;;10.50;;
19341;SDS011;9807;48.258;12.690;2022-12-07T14:37:49;19.37;;;10.20;;
19341;SDS011;9807;48.258;12.690;2022-12-07T14:40:25;17.60;;;9.30;;
19341;SDS011;9807;48.258;12.690;2022-12-07T14:42:54;13.10;;;7.57;;
19341;SDS011;9807;48.258;12.690;2022-12-07T14:45:24;15.40;;;8.77;;
19341;SDS011;9807;48.258;12.690;2022-12-07T14:47:50;33.10;;;11.43;;
19341;SDS011;9807;48.258;12.690;2022-12-07T14:50:17;18.63;;;7.80;;
19341;SDS011;9807;48.258;12.690;2022-12-07T14:52:47;13.50;;;7.07;;
19341;SDS011;9807;48.258;12.690;2022-12-07T14:57:49;13.97;;;8.03;;
19341;SDS011;9807;48.258;12.690;2022-12-07T15:00:15;14.50;;;7.80;;
19341;SDS011;9807;48.258;12.690;2022-12-07T15:02:46;12.80;;;7.00;;
19341;SDS011;9807;48.258;12.690;2022-12-07T15:05:13;12.70;;;6.87;;
19341;SDS011;9807;48.258;12.690;2022-12-07T15:07:43;10.23;;;6.40;;
19341;SDS011;9807;48.258;12.690;2022-12-07T15:10:16;10.00;;;6.63;;
19341;SDS011;9807;48.258;12.690;2022-12-07T15:12:44;13.33;;;8.43;;
19341;SDS011;9807;48.258;12.690;2022-12-07T15:15:14;14.50;;;7.90;;
19341;SDS011;9807;48.258;12.690;2022-12-07T15:17:40;10.27;;;7.60;;
19341;SDS011;9807;48.258;12.690;2022-12-07T15:20:12;14.13;;;7.30;;
19341;SDS011;9807;48.258;12.690;2022-12-07T15:22:41;16.03;;;8.40;;
19341;SDS011;9807;48.258;12.690;2022-12-07T15:25:08;16.53;;;9.93;;
19341;SDS011;9807;48.258;12.690;2022-12-07T15:27:37;15.93;;;8.50;;
19341;SDS011;9807;48.258;12.690;2022-12-07T15:30:03;17.77;;;9.53;;
19341;SDS011;9807;48.258;12.690;2022-12-07T15:32:29;11.07;;;7.30;;
19341;SDS011;9807;48.258;12.690;2022-12-07T15:34:58;15.60;;;8.87;;
19341;SDS011;9807;48.258;12.690;2022-12-07T15:37:24;24.10;;;12.87;;
19341;SDS011;9807;48.258;12.690;2022-12-07T15:39:52;31.40;;;13.37;;
19341;SDS011;9807;48.258;12.690;2022-12-07T15:42:18;25.23;;;12.83;;
19341;SDS011;9807;48.258;12.690;2022-12-07T15:44:44;27.87;;;12.80;;
19341;SDS011;9807;48.258;12.690;2022-12-07T15:47:41;31.10;;;12.63;;
19341;SDS011;9807;48.258;12.690;2022-12-07T15:50:12;20.23;;;11.87;;
19341;SDS011;9807;48.258;12.690;2022-12-07T15:52:39;45.20;;;13.10;;
19341;SDS011;9807;48.258;12.690;2022-12-07T15:55:08;20.67;;;10.97;;
19341;SDS011;9807;48.258;12.690;2022-12-07T15:57:43;23.47;;;12.10;;
19341;SDS011;9807;48.258;12.690;2022-12-07T16:00:09;25.67;;;11.40;;
19341;SDS011;9807;48.258;12.690;2022-12-07T16:02:47;30.97;;;12.20;;
19341;SDS011;9807;48.258;12.690;2022-12-07T16:05:16;27.20;;;14.47;;
19341;SDS011;9807;48.258;12.690;2022-12-07T16:07:42;27.43;;;12.97;;
19341;SDS011;9807;48.258;12.690;2022-12-07T16:10:07;34.33;;;16.30;;
19341;SDS011;9807;48.258;12.690;2022-12-07T16:12:33;31.23;;;16.47;;
19341;SDS011;9807;48.258;12.690;2022-12-07T16:14:59;32.43;;;17.40;;
19341;SDS011;9807;48.258;12.690;2022-12-07T16:17:25;29.60;;;14.60;;
19341;SDS011;9807;48.258;12.690;2022-12-07T16:19:50;33.13;;;15.27;;
19341;SDS011;9807;48.258;12.690;2022-12-07T16:22:17;30.60;;;14.97;;
19341;SDS011;9807;48.258;12.690;2022-12-07T16:24:42;30.97;;;15.90;;
19341;SDS011;9807;48.258;12.690;2022-12-07T16:27:11;33.20;;;17.10;;
19341;SDS011;9807;48.258;12.690;2022-12-07T16:29:38;39.63;;;18.83;;
19341;SDS011;9807;48.258;12.690;2022-12-07T16:32:03;33.37;;;17.73;;
19341;SDS011;9807;48.258;12.690;2022-12-07T16:34:29;50.40;;;23.20;;
19341;SDS011;9807;48.258;12.690;2022-12-07T16:36:55;81.17;;;33.10;;
19341;SDS011;9807;48.258;12.690;2022-12-07T16:39:20;55.33;;;24.83;;
19341;SDS011;9807;48.258;12.690;2022-12-07T16:41:46;63.47;;;27.47;;
19341;SDS011;9807;48.258;12.690;2022-12-07T16:44:12;138.83;;;49.17;;
19341;SDS011;9807;48.258;12.690;2022-12-07T16:46:38;91.77;;;37.67;;